createdAt,value
2023-01-17T00:00:16.516Z,99.90
2023-01-17T00:02:47.382Z,99.90
2023-01-17T00:05:36.848Z,99.90
2023-01-17T00:08:31.470Z,99.90
2023-01-17T00:11:02.365Z,99.90
2023-01-17T00:13:33.218Z,99.90
2023-01-17T00:16:04.262Z,99.90
2023-01-17T00:18:35.131Z,99.90
2023-01-17T00:21:24.755Z,99.90
2023-01-17T00:24:14.376Z,99.90
2023-01-17T00:27:03.849Z,99.90
2023-01-17T00:29:34.703Z,99.90
2023-01-17T00:32:05.642Z,99.90
2023-01-17T00:34:36.480Z,99.90
2023-01-17T00:37:07.465Z,99.90
2023-01-17T00:39:38.268Z,99.90
2023-01-17T00:42:09.205Z,99.90
2023-01-17T00:44:58.304Z,99.90
2023-01-17T00:47:47.667Z,99.90
2023-01-17T00:50:37.243Z,99.90
2023-01-17T00:53:26.823Z,99.90
2023-01-17T00:56:20.878Z,99.90
2023-01-17T00:59:10.501Z,99.90
2023-01-17T01:01:59.935Z,99.90
2023-01-17T01:04:49.165Z,99.90
2023-01-17T01:07:38.620Z,99.90
2023-01-17T01:10:28.865Z,99.90
2023-01-17T01:13:18.337Z,99.90
2023-01-17T01:16:07.817Z,99.90
2023-01-17T01:18:57.669Z,99.90
2023-01-17T01:21:46.989Z,99.90
2023-01-17T01:24:36.551Z,99.90
2023-01-17T01:27:26.011Z,99.90
2023-01-17T01:30:15.451Z,99.90
2023-01-17T01:33:04.957Z,99.90
2023-01-17T01:35:37.054Z,99.90
2023-01-17T01:38:07.908Z,99.90
2023-01-17T01:40:47.748Z,99.90
2023-01-17T01:43:37.825Z,99.90
2023-01-17T01:46:13.857Z,99.90
2023-01-17T01:48:56.915Z,99.90
2023-01-17T01:51:58.799Z,99.90
2023-01-17T01:54:39.269Z,99.90
2023-01-17T01:57:16.381Z,99.90
2023-01-17T01:59:55.443Z,99.90
2023-01-17T02:02:30.317Z,99.90
2023-01-17T02:05:04.438Z,99.90
2023-01-17T02:07:46.226Z,99.90
2023-01-17T02:10:17.200Z,99.90
2023-01-17T02:12:49.163Z,99.90
2023-01-17T02:15:27.888Z,99.90
2023-01-17T02:18:13.603Z,99.90
2023-01-17T02:21:17.455Z,99.90
2023-01-17T02:24:19.218Z,99.90
2023-01-17T02:27:06.184Z,99.90
2023-01-17T02:30:16.189Z,99.90
2023-01-17T02:33:43.803Z,99.90
2023-01-17T02:36:30.289Z,99.90
2023-01-17T02:39:21.090Z,99.90
2023-01-17T02:41:58.347Z,99.90
2023-01-17T02:44:29.287Z,99.90
2023-01-17T02:47:00.102Z,99.90
2023-01-17T02:49:32.374Z,99.90
2023-01-17T02:52:48.032Z,99.90
2023-01-17T02:55:38.264Z,99.90
2023-01-17T02:58:52.350Z,99.90
2023-01-17T03:01:56.992Z,99.90
2023-01-17T03:04:42.282Z,99.90
2023-01-17T03:07:19.829Z,99.90
2023-01-17T03:09:57.600Z,99.90
2023-01-17T03:12:33.884Z,99.90
2023-01-17T03:15:14.606Z,99.90
2023-01-17T03:17:50.448Z,99.90
2023-01-17T03:20:22.629Z,99.90
2023-01-17T03:22:53.624Z,99.90
2023-01-17T03:25:24.536Z,99.90
2023-01-17T03:27:55.480Z,99.90
2023-01-17T03:30:26.395Z,99.90
2023-01-17T03:32:57.284Z,99.90
2023-01-17T03:35:28.377Z,99.90
2023-01-17T03:37:59.264Z,99.90
2023-01-17T03:40:30.101Z,99.90
2023-01-17T03:43:00.960Z,99.90
2023-01-17T03:45:31.817Z,99.90
2023-01-17T03:48:02.748Z,99.90
2023-01-17T03:50:33.632Z,99.90
2023-01-17T03:53:04.510Z,99.90
2023-01-17T03:55:35.326Z,99.90
2023-01-17T03:58:06.222Z,99.90
2023-01-17T04:00:37.142Z,99.90
2023-01-17T04:03:08.161Z,99.90
2023-01-17T04:05:39.016Z,99.90
2023-01-17T04:08:09.931Z,99.90
2023-01-17T04:10:40.761Z,99.90
2023-01-17T04:13:12.103Z,99.90
2023-01-17T04:15:46.169Z,99.90
2023-01-17T04:18:22.366Z,99.90
2023-01-17T04:20:53.365Z,99.90
2023-01-17T04:23:25.401Z,99.90
2023-01-17T04:25:56.254Z,99.90
2023-01-17T04:28:27.308Z,99.90
2023-01-17T04:31:00.087Z,99.90
2023-01-17T04:33:31.065Z,99.90
2023-01-17T04:36:01.896Z,99.90
2023-01-17T04:38:32.752Z,99.90
2023-01-17T04:41:03.659Z,99.90
2023-01-17T04:43:35.100Z,99.90
2023-01-17T04:46:10.002Z,99.90
2023-01-17T04:48:41.069Z,99.90
2023-01-17T04:51:11.961Z,99.90
2023-01-17T04:53:42.872Z,99.90
2023-01-17T04:56:13.790Z,99.90
2023-01-17T04:58:44.673Z,99.90
2023-01-17T05:01:15.691Z,99.90
2023-01-17T05:03:46.706Z,99.90
2023-01-17T05:06:17.621Z,99.90
2023-01-17T05:08:48.508Z,99.90
2023-01-17T05:11:19.370Z,99.90
2023-01-17T05:13:50.217Z,99.90
2023-01-17T05:16:21.254Z,99.90
2023-01-17T05:18:53.516Z,99.90
2023-01-17T05:21:24.469Z,99.90
2023-01-17T05:23:55.299Z,99.90
2023-01-17T05:26:26.294Z,99.90
2023-01-17T05:28:57.150Z,99.90
2023-01-17T05:31:28.009Z,99.90
2023-01-17T05:33:58.879Z,99.90
2023-01-17T05:36:29.864Z,99.90
2023-01-17T05:39:00.728Z,99.90
2023-01-17T05:41:31.658Z,99.90
2023-01-17T05:44:02.516Z,99.90
2023-01-17T05:46:33.426Z,99.90
2023-01-17T05:49:04.415Z,99.90
2023-01-17T05:51:37.813Z,99.90
2023-01-17T05:54:08.726Z,99.90
2023-01-17T05:56:42.344Z,99.90
2023-01-17T05:59:14.288Z,99.90
2023-01-17T06:01:46.120Z,99.90
2023-01-17T06:04:17.024Z,99.90
2023-01-17T06:06:47.935Z,99.90
2023-01-17T06:09:18.776Z,99.90
2023-01-17T06:11:49.607Z,99.90
2023-01-17T06:14:20.470Z,99.90
2023-01-17T06:16:51.365Z,99.90
2023-01-17T06:19:22.214Z,99.90
2023-01-17T06:21:53.072Z,99.90
2023-01-17T06:24:23.988Z,99.90
2023-01-17T06:26:54.818Z,99.90
2023-01-17T06:29:25.747Z,99.90
2023-01-17T06:31:56.580Z,99.90
2023-01-17T06:34:27.937Z,99.90
2023-01-17T06:36:59.141Z,99.90
2023-01-17T06:39:30.000Z,99.90
2023-01-17T06:42:00.969Z,99.90
2023-01-17T06:44:31.823Z,99.90
2023-01-17T06:47:03.058Z,99.90
2023-01-17T06:49:33.917Z,99.90
2023-01-17T06:52:04.961Z,99.90
2023-01-17T06:54:35.913Z,99.90
2023-01-17T06:57:06.774Z,99.90
2023-01-17T06:59:37.729Z,99.90
2023-01-17T07:02:11.555Z,99.90
2023-01-17T07:04:42.491Z,99.90
2023-01-17T07:07:13.443Z,99.90
2023-01-17T07:09:44.464Z,99.90
2023-01-17T07:12:15.376Z,99.90
2023-01-17T07:14:46.212Z,99.90
2023-01-17T07:17:17.357Z,99.90
2023-01-17T07:19:48.228Z,99.90
2023-01-17T07:22:19.130Z,99.90
2023-01-17T07:24:49.957Z,99.90
2023-01-17T07:27:20.799Z,99.90
2023-01-17T07:29:54.084Z,99.90
2023-01-17T07:32:26.737Z,99.90
2023-01-17T07:34:58.150Z,99.90
2023-01-17T07:37:29.082Z,99.90
2023-01-17T07:40:02.479Z,99.90
2023-01-17T07:42:33.370Z,99.90
2023-01-17T07:45:04.933Z,99.90
2023-01-17T07:47:35.830Z,99.90
2023-01-17T07:50:07.995Z,99.90
2023-01-17T07:52:38.916Z,99.90
2023-01-17T07:55:10.448Z,99.90
2023-01-17T07:57:41.313Z,99.90
2023-01-17T08:00:12.593Z,99.90
2023-01-17T08:02:43.495Z,99.90
2023-01-17T08:05:14.712Z,99.90
2023-01-17T08:07:45.569Z,99.90
2023-01-17T08:10:18.104Z,99.90
2023-01-17T08:12:50.636Z,99.90
2023-01-17T08:15:21.545Z,99.90
2023-01-17T08:17:53.652Z,99.90
2023-01-17T08:20:27.916Z,99.90
2023-01-17T08:22:59.413Z,99.90
2023-01-17T08:25:30.255Z,99.90
2023-01-17T08:28:01.395Z,99.90
2023-01-17T08:30:32.286Z,99.90
2023-01-17T08:33:03.258Z,99.90
2023-01-17T08:35:36.629Z,99.90
2023-01-17T08:38:07.497Z,99.90
2023-01-17T08:40:38.533Z,99.90
2023-01-17T08:43:09.436Z,99.90
2023-01-17T08:45:43.541Z,99.90
2023-01-17T08:48:15.553Z,99.90
2023-01-17T08:50:49.785Z,99.90
2023-01-17T08:53:23.149Z,99.90
2023-01-17T08:56:05.237Z,99.90
2023-01-17T08:58:36.142Z,99.90
2023-01-17T09:01:07.251Z,99.90
2023-01-17T09:03:40.774Z,99.90
2023-01-17T09:06:15.000Z,99.90
2023-01-17T09:08:47.940Z,99.90
2023-01-17T09:11:18.869Z,99.90
2023-01-17T09:13:49.724Z,99.90
2023-01-17T09:16:20.785Z,99.90
2023-01-17T09:18:59.186Z,99.90
2023-01-17T09:21:30.059Z,99.90
2023-01-17T09:24:00.941Z,99.90
2023-01-17T09:26:31.781Z,99.90
2023-01-17T09:29:02.674Z,99.90
2023-01-17T09:31:34.873Z,99.90
2023-01-17T09:34:05.719Z,99.90
2023-01-17T09:36:36.604Z,99.90
2023-01-17T09:39:08.233Z,99.90
2023-01-17T09:41:51.235Z,99.90
2023-01-17T09:44:42.678Z,99.90
2023-01-17T09:47:35.997Z,99.90
2023-01-17T09:50:41.954Z,99.90
2023-01-17T09:53:16.966Z,99.90
2023-01-17T09:56:06.361Z,99.90
2023-01-17T09:59:04.999Z,99.90
2023-01-17T10:02:49.538Z,99.90
2023-01-17T10:05:37.663Z,99.90
2023-01-17T10:08:26.958Z,99.90
2023-01-17T10:11:17.134Z,99.90
2023-01-17T10:13:59.623Z,99.90
2023-01-17T10:16:42.036Z,99.90
2023-01-17T10:19:50.584Z,99.90
2023-01-17T10:22:38.327Z,99.90
2023-01-17T10:25:37.152Z,99.90
2023-01-17T10:28:46.828Z,99.90
2023-01-17T10:31:40.934Z,99.90
2023-01-17T10:34:28.317Z,99.90
2023-01-17T10:37:31.271Z,99.90
2023-01-17T10:40:17.291Z,99.90
2023-01-17T10:43:05.227Z,99.90
2023-01-17T10:45:51.715Z,99.90
2023-01-17T10:48:44.828Z,99.90
2023-01-17T10:51:43.032Z,99.90
2023-01-17T10:54:51.486Z,99.90
2023-01-17T10:57:28.217Z,99.90
2023-01-17T11:00:01.273Z,99.90
2023-01-17T11:02:39.970Z,99.90
2023-01-17T11:05:32.972Z,99.90
2023-01-17T11:08:13.709Z,99.90
2023-01-17T11:10:48.074Z,99.90
2023-01-17T11:13:35.191Z,99.90
2023-01-17T11:16:23.067Z,99.90
2023-01-17T11:19:06.065Z,99.90
2023-01-17T11:21:39.725Z,99.90
2023-01-17T11:24:20.765Z,99.90
2023-01-17T11:26:51.710Z,99.90
2023-01-17T11:29:41.192Z,99.90
2023-01-17T11:32:31.140Z,99.90
2023-01-17T11:35:17.714Z,99.90
2023-01-17T11:37:51.114Z,99.90
2023-01-17T11:40:30.953Z,99.90
2023-01-17T11:43:22.956Z,99.90
2023-01-17T11:46:15.328Z,99.90
2023-01-17T11:48:56.576Z,99.90
2023-01-17T11:51:39.958Z,99.90
2023-01-17T11:54:22.353Z,99.90
2023-01-17T11:57:02.830Z,99.90
2023-01-17T11:59:37.581Z,99.90
2023-01-17T12:02:39.165Z,99.90
2023-01-17T12:05:56.629Z,99.90
2023-01-17T12:09:10.771Z,98.50
2023-01-17T12:12:43.871Z,98.70
2023-01-17T12:15:48.315Z,97.60
2023-01-17T12:18:53.465Z,97.80
2023-01-17T12:21:35.770Z,97.80
2023-01-17T12:24:46.755Z,97.50
2023-01-17T12:27:42.711Z,97.20
2023-01-17T12:31:03.703Z,97.40
2023-01-17T12:33:56.819Z,96.70
2023-01-17T12:37:09.598Z,96.90
2023-01-17T12:39:49.761Z,98.30
2023-01-17T12:42:34.444Z,96.00
2023-01-17T12:45:12.116Z,97.70
2023-01-17T12:47:54.502Z,96.00
2023-01-17T12:50:40.637Z,95.70
2023-01-17T12:53:35.170Z,95.90
2023-01-17T12:56:27.325Z,96.30
2023-01-17T12:59:26.040Z,95.30
2023-01-17T13:01:59.992Z,95.80
2023-01-17T13:04:58.087Z,96.30
2023-01-17T13:08:04.910Z,95.50
2023-01-17T13:10:46.123Z,95.70
2023-01-17T13:13:29.417Z,96.70
2023-01-17T13:16:18.849Z,95.90
2023-01-17T13:18:52.070Z,96.00
2023-01-17T13:21:34.484Z,96.60
2023-01-17T13:24:31.685Z,98.30
2023-01-17T13:27:38.927Z,96.20
2023-01-17T13:31:04.979Z,96.50
2023-01-17T13:33:46.087Z,96.20
2023-01-17T13:36:33.225Z,97.50
2023-01-17T13:39:38.130Z,96.20
2023-01-17T13:42:25.461Z,97.00
2023-01-17T13:44:58.060Z,96.60
2023-01-17T13:47:29.660Z,96.80
2023-01-17T13:50:00.491Z,97.30
2023-01-17T13:52:33.225Z,98.40
2023-01-17T13:55:07.194Z,96.60
2023-01-17T13:57:43.682Z,98.50
2023-01-17T14:00:21.335Z,97.80
2023-01-17T14:02:55.434Z,97.20
2023-01-17T14:05:38.774Z,96.50
2023-01-17T14:08:21.912Z,97.00
2023-01-17T14:10:54.792Z,96.70
2023-01-17T14:13:34.466Z,96.80
2023-01-17T14:16:29.251Z,97.10
2023-01-17T14:19:00.499Z,97.30
2023-01-17T14:21:32.346Z,97.10
2023-01-17T14:24:16.446Z,96.80
2023-01-17T14:26:57.675Z,96.40
2023-01-17T14:29:53.711Z,96.80
2023-01-17T14:32:33.380Z,97.10
2023-01-17T14:35:22.467Z,96.40
2023-01-17T14:37:57.312Z,96.80
2023-01-17T14:40:31.425Z,97.60
2023-01-17T14:43:16.234Z,97.50
2023-01-17T14:45:47.743Z,97.30
2023-01-17T14:48:21.851Z,97.60
2023-01-17T14:51:01.853Z,97.80
2023-01-17T14:53:33.961Z,97.80
2023-01-17T14:56:19.574Z,97.50
2023-01-17T14:59:17.349Z,97.60
2023-01-17T15:02:07.268Z,96.90
2023-01-17T15:04:40.376Z,97.20
2023-01-17T15:07:16.522Z,97.30
2023-01-17T15:09:47.504Z,97.80
2023-01-17T15:12:19.565Z,97.80
2023-01-17T15:14:51.756Z,97.70
2023-01-17T15:17:24.931Z,97.80
2023-01-17T15:20:06.321Z,97.90
2023-01-17T15:22:37.365Z,98.40
2023-01-17T15:25:11.584Z,98.30
2023-01-17T15:27:42.535Z,98.20
2023-01-17T15:30:16.491Z,98.40
2023-01-17T15:32:49.250Z,98.30
2023-01-17T15:35:21.112Z,98.50
2023-01-17T15:37:54.659Z,97.70
2023-01-17T15:40:26.094Z,98.20
2023-01-17T15:43:01.774Z,98.70
2023-01-17T15:45:36.057Z,98.90
2023-01-17T15:48:44.922Z,98.70
2023-01-17T15:51:31.980Z,98.70
2023-01-17T15:54:35.958Z,98.50
2023-01-17T15:57:37.356Z,98.60
2023-01-17T16:00:18.665Z,99.00
2023-01-17T16:02:58.992Z,99.00
2023-01-17T16:05:33.455Z,99.10
2023-01-17T16:08:04.590Z,99.10
2023-01-17T16:10:37.974Z,99.20
2023-01-17T16:13:12.958Z,99.60
2023-01-17T16:15:43.911Z,99.30
2023-01-17T16:18:25.672Z,99.40
2023-01-17T16:21:30.524Z,99.40
2023-01-17T16:24:03.212Z,99.60
2023-01-17T16:26:34.154Z,99.90
2023-01-17T16:29:05.003Z,99.90
2023-01-17T16:31:36.005Z,99.60
2023-01-17T16:34:14.188Z,99.70
2023-01-17T16:36:45.117Z,99.40
2023-01-17T16:39:16.041Z,99.40
2023-01-17T16:41:46.869Z,99.60
2023-01-17T16:44:17.757Z,99.90
2023-01-17T16:46:48.586Z,99.60
2023-01-17T16:49:19.520Z,99.40
2023-01-17T16:51:51.767Z,99.50
2023-01-17T16:54:23.022Z,99.70
2023-01-17T16:56:54.364Z,99.70
2023-01-17T16:59:26.050Z,99.90
2023-01-17T17:01:58.486Z,99.90
2023-01-17T17:04:29.462Z,99.90
2023-01-17T17:07:00.311Z,99.80
2023-01-17T17:09:31.184Z,99.60
2023-01-17T17:12:03.199Z,99.40
2023-01-17T17:14:34.215Z,99.80
2023-01-17T17:17:07.643Z,99.00
2023-01-17T17:19:38.526Z,99.90
2023-01-17T17:22:09.459Z,99.90
2023-01-17T17:24:40.308Z,99.50
2023-01-17T17:27:11.132Z,99.90
2023-01-17T17:29:42.012Z,99.90
2023-01-17T17:32:12.906Z,99.80
2023-01-17T17:34:45.435Z,99.90
2023-01-17T17:37:16.770Z,99.90
2023-01-17T17:39:47.640Z,99.90
2023-01-17T17:42:19.982Z,99.90
2023-01-17T17:44:50.844Z,99.90
2023-01-17T17:47:21.736Z,99.90
2023-01-17T17:49:52.548Z,99.90
2023-01-17T17:52:23.416Z,99.90
2023-01-17T17:54:54.317Z,99.90
2023-01-17T17:57:25.158Z,99.90
2023-01-17T17:59:56.813Z,99.90
2023-01-17T18:02:27.809Z,99.90
2023-01-17T18:04:58.725Z,99.90
2023-01-17T18:07:32.722Z,99.90
2023-01-17T18:10:04.021Z,99.90
2023-01-17T18:12:34.891Z,99.90
2023-01-17T18:15:09.535Z,99.90
2023-01-17T18:17:40.430Z,99.90
2023-01-17T18:20:11.496Z,99.90
2023-01-17T18:22:42.721Z,99.90
2023-01-17T18:25:13.631Z,99.90
2023-01-17T18:27:45.046Z,99.90
2023-01-17T18:30:17.513Z,99.90
2023-01-17T18:32:49.913Z,99.90
2023-01-17T18:35:20.769Z,99.90
2023-01-17T18:37:51.754Z,99.90
2023-01-17T18:40:22.675Z,99.90
2023-01-17T18:42:53.758Z,99.90
2023-01-17T18:45:24.814Z,99.90
2023-01-17T18:47:56.069Z,99.90
2023-01-17T18:50:27.135Z,99.90
2023-01-17T18:52:58.072Z,99.90
2023-01-17T18:55:28.929Z,99.90
2023-01-17T18:57:59.782Z,99.90
2023-01-17T19:00:30.679Z,99.90
2023-01-17T19:03:02.162Z,99.90
2023-01-17T19:05:35.976Z,99.90
2023-01-17T19:08:06.830Z,99.90
2023-01-17T19:10:37.689Z,99.90
2023-01-17T19:13:09.392Z,99.90
2023-01-17T19:15:41.749Z,99.90
2023-01-17T19:18:12.853Z,99.90
2023-01-17T19:20:43.754Z,99.90
2023-01-17T19:23:14.593Z,99.90
2023-01-17T19:25:45.468Z,99.90
2023-01-17T19:28:16.329Z,99.90
2023-01-17T19:30:47.312Z,99.90
2023-01-17T19:33:18.271Z,99.90
2023-01-17T19:35:49.109Z,99.90
2023-01-17T19:38:19.961Z,99.90
2023-01-17T19:40:50.816Z,99.90
2023-01-17T19:43:21.996Z,99.90
2023-01-17T19:46:00.290Z,99.90
2023-01-17T19:48:31.395Z,99.90
2023-01-17T19:51:11.643Z,99.90
2023-01-17T19:53:42.984Z,99.90
2023-01-17T19:56:19.413Z,99.90
2023-01-17T19:58:50.952Z,99.90
2023-01-17T20:01:27.354Z,99.90
2023-01-17T20:04:00.197Z,99.90
2023-01-17T20:06:35.276Z,99.90
2023-01-17T20:09:06.569Z,99.90
2023-01-17T20:11:37.981Z,99.90
2023-01-17T20:14:14.288Z,99.90
2023-01-17T20:16:47.499Z,99.90
2023-01-17T20:19:18.436Z,99.90
2023-01-17T20:21:49.264Z,99.90
2023-01-17T20:24:20.224Z,99.90
2023-01-17T20:26:51.712Z,99.90
2023-01-17T20:29:22.561Z,99.90
2023-01-17T20:31:53.539Z,99.90
2023-01-17T20:34:26.276Z,99.90
2023-01-17T20:36:59.182Z,99.90
2023-01-17T20:39:30.049Z,99.90
2023-01-17T20:42:01.253Z,99.90
2023-01-17T20:44:33.674Z,99.90
2023-01-17T20:47:04.643Z,99.90
2023-01-17T20:49:35.561Z,99.90
2023-01-17T20:52:06.570Z,99.90
2023-01-17T20:54:37.501Z,99.90
2023-01-17T20:57:08.343Z,99.90
2023-01-17T20:59:39.209Z,99.90
2023-01-17T21:02:10.648Z,99.90
2023-01-17T21:04:41.719Z,99.90
2023-01-17T21:07:12.605Z,99.90
2023-01-17T21:09:43.506Z,99.90
2023-01-17T21:12:15.939Z,99.90
2023-01-17T21:14:47.179Z,99.90
2023-01-17T21:17:18.537Z,99.90
2023-01-17T21:19:49.356Z,99.90
2023-01-17T21:22:20.216Z,99.90
2023-01-17T21:24:51.092Z,99.90
2023-01-17T21:27:21.968Z,99.90
2023-01-17T21:29:55.854Z,99.90
2023-01-17T21:32:29.107Z,99.90
2023-01-17T21:35:00.006Z,99.90
2023-01-17T21:37:30.860Z,99.90
2023-01-17T21:40:04.307Z,99.90
2023-01-17T21:42:36.001Z,99.90
2023-01-17T21:45:07.830Z,99.90
2023-01-17T21:47:38.791Z,99.90
2023-01-17T21:50:11.013Z,99.90
2023-01-17T21:52:41.879Z,99.90
2023-01-17T21:55:31.077Z,99.90
2023-01-17T21:58:20.534Z,99.90
2023-01-17T22:01:07.607Z,99.90
2023-01-17T22:03:38.605Z,99.90
2023-01-17T22:06:10.279Z,99.90
2023-01-17T22:08:41.182Z,99.90
2023-01-17T22:11:15.612Z,99.90
2023-01-17T22:13:47.228Z,99.90
2023-01-17T22:16:23.349Z,99.90
2023-01-17T22:18:55.019Z,99.90
2023-01-17T22:21:28.320Z,99.90
2023-01-17T22:24:00.197Z,99.90
2023-01-17T22:26:31.723Z,99.90
2023-01-17T22:29:03.626Z,99.90
2023-01-17T22:31:34.467Z,99.90
2023-01-17T22:34:05.645Z,99.90
2023-01-17T22:36:36.483Z,99.90
2023-01-17T22:39:07.853Z,99.90
2023-01-17T22:41:38.958Z,99.90
2023-01-17T22:44:12.837Z,99.90
2023-01-17T22:46:43.716Z,99.90
2023-01-17T22:49:16.823Z,99.90
2023-01-17T22:51:47.739Z,99.90
2023-01-17T22:54:19.527Z,99.90
2023-01-17T22:56:50.431Z,99.90
2023-01-17T22:59:24.133Z,99.90
2023-01-17T23:01:55.011Z,99.90
2023-01-17T23:04:28.282Z,99.90
2023-01-17T23:06:59.208Z,99.90
2023-01-17T23:09:30.110Z,99.90
2023-01-17T23:12:00.997Z,99.90
2023-01-17T23:14:54.359Z,99.90
2023-01-17T23:17:43.788Z,99.90
2023-01-17T23:20:14.912Z,99.90
2023-01-17T23:22:46.397Z,99.90
2023-01-17T23:25:17.544Z,99.90
2023-01-17T23:28:06.684Z,99.90
2023-01-17T23:30:40.922Z,99.90
2023-01-17T23:33:14.692Z,99.90
2023-01-17T23:35:46.730Z,99.90
2023-01-17T23:38:33.812Z,99.90
2023-01-17T23:41:26.464Z,99.90
2023-01-17T23:43:58.981Z,99.90
2023-01-17T23:46:30.350Z,99.90
2023-01-17T23:49:01.334Z,99.90
2023-01-17T23:51:32.160Z,99.90
2023-01-17T23:54:05.408Z,99.90
2023-01-17T23:56:36.390Z,99.90
2023-01-17T23:59:07.383Z,99.90
